sensor_id;sensor_type;location;lat;lon;timestamp;P1;durP1;ratioP1;P2;durP2;ratioP2
38557;SDS011;24333;42.626;23.308;2022-12-16T00:01:47;7.55;;;3.13;;
38557;SDS011;24333;42.626;23.308;2022-12-16T00:04:13;12.95;;;3.70;;
38557;SDS011;24333;42.626;23.308;2022-12-16T00:06:41;11.35;;;3.72;;
38557;SDS011;24333;42.626;23.308;2022-12-16T00:09:08;7.50;;;2.97;;
38557;SDS011;24333;42.626;23.308;2022-12-16T00:11:34;8.90;;;3.35;;
38557;SDS011;24333;42.626;23.308;2022-12-16T00:14:01;10.02;;;4.30;;
38557;SDS011;24333;42.626;23.308;2022-12-16T00:16:27;16.30;;;6.20;;
38557;SDS011;24333;42.626;23.308;2022-12-16T00:18:53;20.35;;;8.25;;
38557;SDS011;24333;42.626;23.308;2022-12-16T00:21:19;18.98;;;8.25;;
38557;SDS011;24333;42.626;23.308;2022-12-16T00:23:45;30.13;;;10.70;;
38557;SDS011;24333;42.626;23.308;2022-12-16T00:26:12;28.13;;;9.98;;
38557;SDS011;24333;42.626;23.308;2022-12-16T01:42:29;38.28;;;12.10;;
38557;SDS011;24333;42.626;23.308;2022-12-16T01:45:27;42.10;;;14.25;;
38557;SDS011;24333;42.626;23.308;2022-12-16T01:48:49;47.65;;;14.07;;
38557;SDS011;24333;42.626;23.308;2022-12-16T01:51:24;46.90;;;13.77;;
38557;SDS011;24333;42.626;23.308;2022-12-16T01:56:52;25.42;;;9.75;;
38557;SDS011;24333;42.626;23.308;2022-12-16T02:21:44;19.65;;;7.53;;
38557;SDS011;24333;42.626;23.308;2022-12-16T03:28:44;14.50;;;6.40;;
38557;SDS011;24333;42.626;23.308;2022-12-16T03:31:18;16.75;;;7.93;;
38557;SDS011;24333;42.626;23.308;2022-12-16T03:33:54;18.08;;;8.00;;
38557;SDS011;24333;42.626;23.308;2022-12-16T03:36:25;65.68;;;19.90;;
38557;SDS011;24333;42.626;23.308;2022-12-16T03:38:54;23.02;;;9.00;;
38557;SDS011;24333;42.626;23.308;2022-12-16T03:41:21;35.72;;;13.10;;
38557;SDS011;24333;42.626;23.308;2022-12-16T03:43:48;42.53;;;15.02;;
38557;SDS011;24333;42.626;23.308;2022-12-16T03:46:14;45.63;;;18.25;;
38557;SDS011;24333;42.626;23.308;2022-12-16T03:48:45;77.68;;;24.88;;
38557;SDS011;24333;42.626;23.308;2022-12-16T03:51:12;23.73;;;8.23;;
38557;SDS011;24333;42.626;23.308;2022-12-16T03:53:37;21.45;;;7.57;;
38557;SDS011;24333;42.626;23.308;2022-12-16T03:56:03;78.70;;;12.65;;
38557;SDS011;24333;42.626;23.308;2022-12-16T08:19:41;61.22;;;20.98;;
38557;SDS011;24333;42.626;23.308;2022-12-16T08:22:25;54.53;;;20.25;;
38557;SDS011;24333;42.626;23.308;2022-12-16T08:25:09;65.10;;;20.75;;
38557;SDS011;24333;42.626;23.308;2022-12-16T08:27:54;91.13;;;31.30;;
38557;SDS011;24333;42.626;23.308;2022-12-16T08:33:46;102.15;;;31.05;;
38557;SDS011;24333;42.626;23.308;2022-12-16T08:36:33;267.50;;;31.70;;
38557;SDS011;24333;42.626;23.308;2022-12-16T08:39:17;383.98;;;33.65;;
38557;SDS011;24333;42.626;23.308;2022-12-16T08:42:44;446.63;;;44.28;;
38557;SDS011;24333;42.626;23.308;2022-12-16T08:45:34;431.60;;;39.03;;
38557;SDS011;24333;42.626;23.308;2022-12-16T08:48:33;394.20;;;36.95;;
38557;SDS011;24333;42.626;23.308;2022-12-16T08:51:19;322.77;;;31.13;;
38557;SDS011;24333;42.626;23.308;2022-12-16T08:54:03;269.98;;;31.85;;
38557;SDS011;24333;42.626;23.308;2022-12-16T08:59:36;229.23;;;24.88;;
38557;SDS011;24333;42.626;23.308;2022-12-16T09:05:48;188.98;;;33.15;;
38557;SDS011;24333;42.626;23.308;2022-12-16T09:08:47;160.27;;;36.03;;
38557;SDS011;24333;42.626;23.308;2022-12-16T09:14:48;94.82;;;26.45;;
38557;SDS011;24333;42.626;23.308;2022-12-16T09:17:37;49.30;;;15.98;;
38557;SDS011;24333;42.626;23.308;2022-12-16T09:20:36;61.92;;;18.42;;
38557;SDS011;24333;42.626;23.308;2022-12-16T09:23:22;54.28;;;18.77;;
38557;SDS011;24333;42.626;23.308;2022-12-16T09:26:14;51.17;;;17.20;;
38557;SDS011;24333;42.626;23.308;2022-12-16T09:29:04;45.00;;;14.75;;
38557;SDS011;24333;42.626;23.308;2022-12-16T09:31:48;49.20;;;16.37;;
38557;SDS011;24333;42.626;23.308;2022-12-16T09:34:52;51.08;;;16.45;;
38557;SDS011;24333;42.626;23.308;2022-12-16T09:37:36;46.53;;;16.40;;
38557;SDS011;24333;42.626;23.308;2022-12-16T09:40:20;43.35;;;14.52;;
38557;SDS011;24333;42.626;23.308;2022-12-16T09:43:13;35.95;;;11.52;;
38557;SDS011;24333;42.626;23.308;2022-12-16T09:49:48;30.30;;;10.68;;
38557;SDS011;24333;42.626;23.308;2022-12-16T09:55:54;42.42;;;14.30;;
38557;SDS011;24333;42.626;23.308;2022-12-16T10:09:25;39.50;;;15.35;;
38557;SDS011;24333;42.626;23.308;2022-12-16T10:15:24;56.40;;;18.73;;
38557;SDS011;24333;42.626;23.308;2022-12-16T10:18:26;64.70;;;20.05;;
38557;SDS011;24333;42.626;23.308;2022-12-16T10:21:35;65.28;;;20.50;;
38557;SDS011;24333;42.626;23.308;2022-12-16T10:24:32;69.95;;;22.20;;
38557;SDS011;24333;42.626;23.308;2022-12-16T10:27:38;68.68;;;23.20;;
38557;SDS011;24333;42.626;23.308;2022-12-16T10:30:26;78.68;;;25.98;;
38557;SDS011;24333;42.626;23.308;2022-12-16T10:33:12;71.40;;;25.23;;
38557;SDS011;24333;42.626;23.308;2022-12-16T10:35:58;70.78;;;22.85;;
38557;SDS011;24333;42.626;23.308;2022-12-16T10:38:47;22.92;;;7.13;;
38557;SDS011;24333;42.626;23.308;2022-12-16T10:41:35;13.40;;;4.43;;
38557;SDS011;24333;42.626;23.308;2022-12-16T10:44:22;13.88;;;4.10;;
38557;SDS011;24333;42.626;23.308;2022-12-16T10:47:26;70.07;;;27.30;;
38557;SDS011;24333;42.626;23.308;2022-12-16T10:50:13;16.98;;;5.35;;
38557;SDS011;24333;42.626;23.308;2022-12-16T10:52:59;10.93;;;2.95;;
38557;SDS011;24333;42.626;23.308;2022-12-16T10:59:16;12.32;;;4.65;;
38557;SDS011;24333;42.626;23.308;2022-12-16T11:02:01;46.22;;;17.30;;
38557;SDS011;24333;42.626;23.308;2022-12-16T11:04:48;45.33;;;17.40;;
38557;SDS011;24333;42.626;23.308;2022-12-16T11:07:33;60.40;;;22.25;;
38557;SDS011;24333;42.626;23.308;2022-12-16T11:10:22;52.47;;;20.35;;
38557;SDS011;24333;42.626;23.308;2022-12-16T11:13:28;59.00;;;21.02;;
38557;SDS011;24333;42.626;23.308;2022-12-16T11:16:21;44.88;;;14.52;;
38557;SDS011;24333;42.626;23.308;2022-12-16T11:22:18;10.45;;;4.18;;
38557;SDS011;24333;42.626;23.308;2022-12-16T11:25:17;15.10;;;6.15;;
38557;SDS011;24333;42.626;23.308;2022-12-16T11:30:58;59.10;;;21.70;;
38557;SDS011;24333;42.626;23.308;2022-12-16T11:34:02;38.47;;;14.68;;
38557;SDS011;24333;42.626;23.308;2022-12-16T11:36:47;7.88;;;1.30;;
38557;SDS011;24333;42.626;23.308;2022-12-16T11:39:32;2.58;;;1.30;;
38557;SDS011;24333;42.626;23.308;2022-12-16T11:42:19;3.35;;;1.15;;
38557;SDS011;24333;42.626;23.308;2022-12-16T11:45:05;3.00;;;1.23;;
38557;SDS011;24333;42.626;23.308;2022-12-16T12:23:00;6.55;;;1.42;;
38557;SDS011;24333;42.626;23.308;2022-12-16T12:26:05;8.63;;;2.88;;
38557;SDS011;24333;42.626;23.308;2022-12-16T12:35:36;4.13;;;0.88;;
38557;SDS011;24333;42.626;23.308;2022-12-16T12:38:39;5.28;;;1.65;;
38557;SDS011;24333;42.626;23.308;2022-12-16T12:57:39;32.05;;;13.32;;
38557;SDS011;24333;42.626;23.308;2022-12-16T13:00:29;22.63;;;8.65;;
38557;SDS011;24333;42.626;23.308;2022-12-16T13:06:25;1.88;;;0.80;;
38557;SDS011;24333;42.626;23.308;2022-12-16T13:12:24;3.67;;;0.88;;
38557;SDS011;24333;42.626;23.308;2022-12-16T13:18:30;1.45;;;0.70;;
38557;SDS011;24333;42.626;23.308;2022-12-16T13:24:39;6.78;;;1.15;;
38557;SDS011;24333;42.626;23.308;2022-12-16T13:27:27;6.00;;;1.42;;
38557;SDS011;24333;42.626;23.308;2022-12-16T13:30:17;13.43;;;4.25;;
38557;SDS011;24333;42.626;23.308;2022-12-16T13:33:37;13.93;;;4.60;;
38557;SDS011;24333;42.626;23.308;2022-12-16T13:36:16;3.13;;;0.95;;
38557;SDS011;24333;42.626;23.308;2022-12-16T13:39:19;26.27;;;6.78;;
38557;SDS011;24333;42.626;23.308;2022-12-16T13:42:29;8.45;;;2.42;;
38557;SDS011;24333;42.626;23.308;2022-12-16T13:45:16;20.15;;;6.72;;
38557;SDS011;24333;42.626;23.308;2022-12-16T13:48:24;1.80;;;0.80;;
38557;SDS011;24333;42.626;23.308;2022-12-16T13:52:11;3.35;;;2.17;;
38557;SDS011;24333;42.626;23.308;2022-12-16T13:54:51;3.78;;;1.20;;
38557;SDS011;24333;42.626;23.308;2022-12-16T13:57:42;1.75;;;0.98;;
38557;SDS011;24333;42.626;23.308;2022-12-16T14:00:29;2.42;;;1.20;;
38557;SDS011;24333;42.626;23.308;2022-12-16T14:03:26;9.40;;;3.33;;
38557;SDS011;24333;42.626;23.308;2022-12-16T14:06:23;1.30;;;0.80;;
38557;SDS011;24333;42.626;23.308;2022-12-16T14:09:18;3.47;;;1.52;;
38557;SDS011;24333;42.626;23.308;2022-12-16T14:12:13;4.45;;;1.63;;
38557;SDS011;24333;42.626;23.308;2022-12-16T14:15:08;7.43;;;3.28;;
38557;SDS011;24333;42.626;23.308;2022-12-16T14:18:19;15.10;;;6.95;;
38557;SDS011;24333;42.626;23.308;2022-12-16T14:21:27;3.25;;;1.30;;
38557;SDS011;24333;42.626;23.308;2022-12-16T14:24:26;3.80;;;0.80;;
38557;SDS011;24333;42.626;23.308;2022-12-16T14:27:18;8.07;;;1.33;;
38557;SDS011;24333;42.626;23.308;2022-12-16T14:30:15;5.00;;;1.30;;
38557;SDS011;24333;42.626;23.308;2022-12-16T14:36:23;7.57;;;1.73;;
38557;SDS011;24333;42.626;23.308;2022-12-16T14:39:10;13.10;;;5.05;;
38557;SDS011;24333;42.626;23.308;2022-12-16T14:45:01;0.90;;;0.77;;
38557;SDS011;24333;42.626;23.308;2022-12-16T14:47:47;2.05;;;0.90;;
38557;SDS011;24333;42.626;23.308;2022-12-16T14:50:36;3.65;;;0.80;;
38557;SDS011;24333;42.626;23.308;2022-12-16T14:53:22;2.08;;;1.73;;
38557;SDS011;24333;42.626;23.308;2022-12-16T14:56:21;2.63;;;0.90;;
38557;SDS011;24333;42.626;23.308;2022-12-16T14:59:15;1.00;;;0.70;;
38557;SDS011;24333;42.626;23.308;2022-12-16T15:02:24;1.92;;;0.75;;
38557;SDS011;24333;42.626;23.308;2022-12-16T15:05:16;3.65;;;1.10;;
38557;SDS011;24333;42.626;23.308;2022-12-16T15:08:19;1.67;;;0.75;;
38557;SDS011;24333;42.626;23.308;2022-12-16T15:11:04;3.35;;;0.93;;
38557;SDS011;24333;42.626;23.308;2022-12-16T15:13:55;1.65;;;0.70;;
38557;SDS011;24333;42.626;23.308;2022-12-16T15:16:41;22.10;;;6.97;;
38557;SDS011;24333;42.626;23.308;2022-12-16T15:19:27;74.60;;;25.85;;
38557;SDS011;24333;42.626;23.308;2022-12-16T15:22:25;11.00;;;4.93;;
38557;SDS011;24333;42.626;23.308;2022-12-16T15:25:31;8.38;;;2.00;;
38557;SDS011;24333;42.626;23.308;2022-12-16T15:28:23;2.53;;;1.00;;
38557;SDS011;24333;42.626;23.308;2022-12-16T15:31:26;1.77;;;1.40;;
38557;SDS011;24333;42.626;23.308;2022-12-16T15:34:26;1.45;;;0.70;;
38557;SDS011;24333;42.626;23.308;2022-12-16T15:37:34;3.60;;;1.40;;
38557;SDS011;24333;42.626;23.308;2022-12-16T15:40:27;4.50;;;1.30;;
38557;SDS011;24333;42.626;23.308;2022-12-16T15:43:24;4.40;;;1.88;;
38557;SDS011;24333;42.626;23.308;2022-12-16T15:46:17;7.30;;;1.73;;
38557;SDS011;24333;42.626;23.308;2022-12-16T15:49:04;3.53;;;0.70;;
38557;SDS011;24333;42.626;23.308;2022-12-16T16:05:11;2.72;;;1.20;;
38557;SDS011;24333;42.626;23.308;2022-12-16T16:14:13;2.38;;;0.63;;
38557;SDS011;24333;42.626;23.308;2022-12-16T16:16:57;4.28;;;0.82;;
38557;SDS011;24333;42.626;23.308;2022-12-16T16:19:41;5.90;;;0.80;;
38557;SDS011;24333;42.626;23.308;2022-12-16T16:22:26;1.30;;;0.70;;
38557;SDS011;24333;42.626;23.308;2022-12-16T16:25:10;2.80;;;1.00;;
38557;SDS011;24333;42.626;23.308;2022-12-16T16:27:54;2.90;;;1.17;;
38557;SDS011;24333;42.626;23.308;2022-12-16T16:30:39;1.35;;;0.75;;
38557;SDS011;24333;42.626;23.308;2022-12-16T16:33:25;3.97;;;1.80;;
38557;SDS011;24333;42.626;23.308;2022-12-16T16:36:13;3.15;;;0.70;;
38557;SDS011;24333;42.626;23.308;2022-12-16T16:38:58;3.80;;;1.80;;
38557;SDS011;24333;42.626;23.308;2022-12-16T16:41:43;2.80;;;1.60;;
38557;SDS011;24333;42.626;23.308;2022-12-16T16:44:27;1.80;;;0.82;;
38557;SDS011;24333;42.626;23.308;2022-12-16T16:47:14;1.73;;;0.82;;
38557;SDS011;24333;42.626;23.308;2022-12-16T16:50:05;4.30;;;0.88;;
38557;SDS011;24333;42.626;23.308;2022-12-16T16:53:01;3.05;;;1.40;;
38557;SDS011;24333;42.626;23.308;2022-12-16T16:55:45;2.25;;;0.60;;
38557;SDS011;24333;42.626;23.308;2022-12-16T16:58:30;5.28;;;1.70;;
38557;SDS011;24333;42.626;23.308;2022-12-16T17:01:21;1.75;;;1.23;;
38557;SDS011;24333;42.626;23.308;2022-12-16T17:04:08;2.75;;;0.95;;
38557;SDS011;24333;42.626;23.308;2022-12-16T17:06:52;10.30;;;3.10;;
38557;SDS011;24333;42.626;23.308;2022-12-16T17:09:37;3.63;;;1.38;;
38557;SDS011;24333;42.626;23.308;2022-12-16T17:12:28;4.07;;;1.45;;
38557;SDS011;24333;42.626;23.308;2022-12-16T17:18:03;5.07;;;1.90;;
38557;SDS011;24333;42.626;23.308;2022-12-16T17:20:48;3.40;;;1.27;;
38557;SDS011;24333;42.626;23.308;2022-12-16T17:23:33;6.05;;;2.55;;
38557;SDS011;24333;42.626;23.308;2022-12-16T17:26:17;7.20;;;2.58;;
38557;SDS011;24333;42.626;23.308;2022-12-16T17:29:02;7.25;;;3.25;;
38557;SDS011;24333;42.626;23.308;2022-12-16T17:31:47;3.95;;;1.50;;
38557;SDS011;24333;42.626;23.308;2022-12-16T17:34:32;8.20;;;2.17;;
38557;SDS011;24333;42.626;23.308;2022-12-16T17:37:16;5.43;;;1.50;;
38557;SDS011;24333;42.626;23.308;2022-12-16T17:39:59;64.80;;;16.42;;
38557;SDS011;24333;42.626;23.308;2022-12-16T17:42:44;8.23;;;3.45;;
38557;SDS011;24333;42.626;23.308;2022-12-16T17:45:28;2.08;;;0.85;;
38557;SDS011;24333;42.626;23.308;2022-12-16T17:48:14;1.17;;;1.00;;
38557;SDS011;24333;42.626;23.308;2022-12-16T17:51:00;1.75;;;0.93;;
38557;SDS011;24333;42.626;23.308;2022-12-16T17:53:47;3.90;;;1.20;;
38557;SDS011;24333;42.626;23.308;2022-12-16T17:56:30;3.17;;;1.55;;
38557;SDS011;24333;42.626;23.308;2022-12-16T17:59:15;1.27;;;0.80;;
38557;SDS011;24333;42.626;23.308;2022-12-16T18:02:01;4.18;;;1.20;;
38557;SDS011;24333;42.626;23.308;2022-12-16T18:09:43;4.32;;;1.50;;
38557;SDS011;24333;42.626;23.308;2022-12-16T18:12:27;13.98;;;6.45;;
38557;SDS011;24333;42.626;23.308;2022-12-16T18:17:57;6.13;;;3.55;;
38557;SDS011;24333;42.626;23.308;2022-12-16T18:20:44;3.38;;;2.17;;
38557;SDS011;24333;42.626;23.308;2022-12-16T18:23:29;1.52;;;0.90;;
38557;SDS011;24333;42.626;23.308;2022-12-16T18:26:14;2.63;;;1.40;;
38557;SDS011;24333;42.626;23.308;2022-12-16T18:28:58;1.85;;;1.00;;
38557;SDS011;24333;42.626;23.308;2022-12-16T18:31:43;1.02;;;0.57;;
38557;SDS011;24333;42.626;23.308;2022-12-16T18:34:27;1.60;;;0.80;;
38557;SDS011;24333;42.626;23.308;2022-12-16T18:37:11;3.38;;;0.60;;
38557;SDS011;24333;42.626;23.308;2022-12-16T18:39:56;1.65;;;0.80;;
38557;SDS011;24333;42.626;23.308;2022-12-16T18:42:40;1.80;;;0.93;;
38557;SDS011;24333;42.626;23.308;2022-12-16T18:45:28;3.00;;;0.90;;
38557;SDS011;24333;42.626;23.308;2022-12-16T18:48:12;2.10;;;0.90;;
38557;SDS011;24333;42.626;23.308;2022-12-16T18:50:59;11.98;;;4.20;;
38557;SDS011;24333;42.626;23.308;2022-12-16T18:53:44;1.20;;;0.77;;
38557;SDS011;24333;42.626;23.308;2022-12-16T18:56:29;2.70;;;0.80;;
38557;SDS011;24333;42.626;23.308;2022-12-16T18:59:15;3.78;;;0.60;;
38557;SDS011;24333;42.626;23.308;2022-12-16T19:02:04;3.80;;;0.82;;
38557;SDS011;24333;42.626;23.308;2022-12-16T19:04:50;2.22;;;1.08;;
38557;SDS011;24333;42.626;23.308;2022-12-16T19:07:37;4.10;;;1.40;;
38557;SDS011;24333;42.626;23.308;2022-12-16T19:16:23;1.77;;;0.90;;
38557;SDS011;24333;42.626;23.308;2022-12-16T19:19:11;0.85;;;0.70;;
38557;SDS011;24333;42.626;23.308;2022-12-16T19:22:04;2.95;;;0.80;;
38557;SDS011;24333;42.626;23.308;2022-12-16T19:37:52;2.72;;;0.80;;
38557;SDS011;24333;42.626;23.308;2022-12-16T19:43:20;2.60;;;0.40;;
38557;SDS011;24333;42.626;23.308;2022-12-16T19:46:04;2.38;;;1.08;;
38557;SDS011;24333;42.626;23.308;2022-12-16T19:48:49;2.10;;;0.60;;
38557;SDS011;24333;42.626;23.308;2022-12-16T19:51:33;27.05;;;10.25;;
38557;SDS011;24333;42.626;23.308;2022-12-16T19:54:17;21.85;;;9.55;;
38557;SDS011;24333;42.626;23.308;2022-12-16T19:57:02;23.02;;;10.25;;
38557;SDS011;24333;42.626;23.308;2022-12-16T19:59:47;23.52;;;9.98;;
38557;SDS011;24333;42.626;23.308;2022-12-16T20:02:31;25.40;;;10.25;;
38557;SDS011;24333;42.626;23.308;2022-12-16T20:05:38;23.38;;;9.50;;
38557;SDS011;24333;42.626;23.308;2022-12-16T20:08:26;20.33;;;8.82;;
38557;SDS011;24333;42.626;23.308;2022-12-16T20:11:14;22.08;;;7.90;;
38557;SDS011;24333;42.626;23.308;2022-12-16T20:14:01;21.23;;;8.20;;
38557;SDS011;24333;42.626;23.308;2022-12-16T20:16:50;22.20;;;8.27;;
38557;SDS011;24333;42.626;23.308;2022-12-16T20:19:39;24.95;;;9.52;;
38557;SDS011;24333;42.626;23.308;2022-12-16T20:25:09;21.30;;;7.95;;
38557;SDS011;24333;42.626;23.308;2022-12-16T20:27:53;21.95;;;6.88;;
38557;SDS011;24333;42.626;23.308;2022-12-16T20:30:39;23.77;;;9.95;;
38557;SDS011;24333;42.626;23.308;2022-12-16T20:33:24;32.53;;;13.18;;
38557;SDS011;24333;42.626;23.308;2022-12-16T20:36:08;27.05;;;11.23;;
38557;SDS011;24333;42.626;23.308;2022-12-16T20:38:54;20.27;;;9.75;;
38557;SDS011;24333;42.626;23.308;2022-12-16T20:41:41;21.38;;;9.13;;
38557;SDS011;24333;42.626;23.308;2022-12-16T20:44:44;22.38;;;7.90;;
38557;SDS011;24333;42.626;23.308;2022-12-16T20:47:28;15.35;;;6.95;;
38557;SDS011;24333;42.626;23.308;2022-12-16T20:50:18;18.35;;;6.82;;
38557;SDS011;24333;42.626;23.308;2022-12-16T20:56:06;19.48;;;8.45;;
38557;SDS011;24333;42.626;23.308;2022-12-16T20:59:00;22.20;;;8.77;;
38557;SDS011;24333;42.626;23.308;2022-12-16T21:02:07;25.42;;;8.75;;
38557;SDS011;24333;42.626;23.308;2022-12-16T21:04:54;21.25;;;8.95;;
38557;SDS011;24333;42.626;23.308;2022-12-16T21:11:06;23.38;;;7.32;;
38557;SDS011;24333;42.626;23.308;2022-12-16T21:13:58;17.52;;;8.20;;
38557;SDS011;24333;42.626;23.308;2022-12-16T21:16:43;21.70;;;8.45;;
38557;SDS011;24333;42.626;23.308;2022-12-16T21:19:38;16.05;;;7.28;;
38557;SDS011;24333;42.626;23.308;2022-12-16T21:22:42;31.60;;;9.88;;
38557;SDS011;24333;42.626;23.308;2022-12-16T21:25:30;20.02;;;8.52;;
38557;SDS011;24333;42.626;23.308;2022-12-16T21:28:24;18.92;;;7.45;;
38557;SDS011;24333;42.626;23.308;2022-12-16T21:31:26;21.08;;;8.18;;
38557;SDS011;24333;42.626;23.308;2022-12-16T21:34:53;22.63;;;7.85;;
38557;SDS011;24333;42.626;23.308;2022-12-16T22:22:14;21.50;;;9.30;;
38557;SDS011;24333;42.626;23.308;2022-12-16T22:25:00;41.90;;;16.10;;
38557;SDS011;24333;42.626;23.308;2022-12-16T22:28:03;41.35;;;17.60;;
38557;SDS011;24333;42.626;23.308;2022-12-16T22:46:36;37.80;;;14.77;;
38557;SDS011;24333;42.626;23.308;2022-12-16T22:49:20;2.10;;;1.20;;
38557;SDS011;24333;42.626;23.308;2022-12-16T22:52:04;2.78;;;1.00;;
38557;SDS011;24333;42.626;23.308;2022-12-16T22:54:48;3.58;;;0.75;;
38557;SDS011;24333;42.626;23.308;2022-12-16T22:57:32;11.65;;;4.40;;
38557;SDS011;24333;42.626;23.308;2022-12-16T23:00:16;13.85;;;6.72;;
38557;SDS011;24333;42.626;23.308;2022-12-16T23:03:01;49.13;;;22.20;;
38557;SDS011;24333;42.626;23.308;2022-12-16T23:05:49;21.88;;;8.57;;
38557;SDS011;24333;42.626;23.308;2022-12-16T23:08:33;5.95;;;2.85;;
38557;SDS011;24333;42.626;23.308;2022-12-16T23:11:18;18.63;;;6.32;;
38557;SDS011;24333;42.626;23.308;2022-12-16T23:14:07;14.57;;;5.97;;
38557;SDS011;24333;42.626;23.308;2022-12-16T23:16:51;4.35;;;1.80;;
38557;SDS011;24333;42.626;23.308;2022-12-16T23:19:35;2.70;;;1.27;;
38557;SDS011;24333;42.626;23.308;2022-12-16T23:22:19;3.20;;;1.35;;
38557;SDS011;24333;42.626;23.308;2022-12-16T23:25:03;1.55;;;0.68;;
38557;SDS011;24333;42.626;23.308;2022-12-16T23:27:48;2.55;;;0.52;;
38557;SDS011;24333;42.626;23.308;2022-12-16T23:30:31;5.45;;;0.80;;
38557;SDS011;24333;42.626;23.308;2022-12-16T23:33:18;6.28;;;1.00;;
38557;SDS011;24333;42.626;23.308;2022-12-16T23:36:02;0.85;;;0.43;;
38557;SDS011;24333;42.626;23.308;2022-12-16T23:38:46;2.35;;;0.65;;
38557;SDS011;24333;42.626;23.308;2022-12-16T23:41:30;0.57;;;0.40;;
38557;SDS011;24333;42.626;23.308;2022-12-16T23:44:14;3.03;;;0.70;;
38557;SDS011;24333;42.626;23.308;2022-12-16T23:46:58;4.22;;;0.50;;
38557;SDS011;24333;42.626;23.308;2022-12-16T23:49:42;1.75;;;0.73;;
38557;SDS011;24333;42.626;23.308;2022-12-16T23:52:26;0.90;;;0.50;;
38557;SDS011;24333;42.626;23.308;2022-12-16T23:55:10;2.28;;;0.52;;
38557;SDS011;24333;42.626;23.308;2022-12-16T23:58:01;3.15;;;0.50;;
